Almond, Wisconsin
Current Conditions -  °F | °C
As of 10:56 PM on Friday 24 Oct 2014 (Local Time) from KY50 Reporting Station
Overcast Overcast  
Wind Chill: 55°   Ceiling: 100
Heat Index: 55°   Visibility: 10mi
Dew Point: 52°   Wind: 5mph
Humidity: 90%   Direction: 220°SW
Pressure: 29.88"   Gusts: NA
Location:  44.26°N, 89.41°W
Report Text: KY50 250356Z AUTO 22004KT 10SM OVC001 13/11 A2988 RMK AO2 TSNO T01270111 SLP117
Loading
Personal Weather Stations






























Interactive Weather Map New forecast layout! Learn more

10-Day Weather Forecast

Advertisements
Track Severe Weather on mobile